createdAt,value
2023-05-06T07:03:34.173Z,100465.13
2023-05-06T07:06:37.025Z,100466.09
2023-05-06T07:09:42.122Z,100463.75
2023-05-06T07:12:44.904Z,100469.56
2023-05-06T07:15:47.392Z,100466.28
2023-05-06T07:18:53.749Z,100464.00
2023-05-06T07:21:56.922Z,100469.16
2023-05-06T07:24:59.639Z,100465.69
2023-05-06T07:28:02.113Z,100459.59
2023-05-06T07:31:04.909Z,100461.72
2023-05-06T07:34:08.832Z,100468.94
2023-05-06T07:37:11.535Z,100470.97
2023-05-06T07:40:14.130Z,100466.59
2023-05-06T07:43:17.085Z,100464.88
2023-05-06T07:46:19.659Z,100455.09
2023-05-06T07:49:25.361Z,100459.22
2023-05-06T07:52:28.085Z,100457.09
2023-05-06T07:55:32.033Z,100456.69
2023-05-06T07:58:35.926Z,100446.78
2023-05-06T08:01:38.679Z,100444.72
2023-05-06T08:04:43.202Z,100451.13
2023-05-06T08:07:46.141Z,100452.94
2023-05-06T08:10:49.367Z,100457.44
2023-05-06T08:13:51.847Z,100453.44
2023-05-06T08:16:54.633Z,100460.41
2023-05-06T08:19:58.495Z,100456.53
2023-05-06T08:23:01.262Z,100465.53
2023-05-06T08:26:03.817Z,100461.03
2023-05-06T08:29:08.069Z,100454.59
2023-05-06T08:32:10.710Z,100453.03
2023-05-06T08:35:15.031Z,100455.78
2023-05-06T08:38:17.455Z,100466.00
2023-05-06T08:41:21.594Z,100459.75
2023-05-06T08:44:24.521Z,100455.84
2023-05-06T08:47:27.531Z,100467.06
2023-05-06T08:50:31.428Z,100465.09
2023-05-06T08:53:34.274Z,100467.97
2023-05-06T08:56:36.694Z,100464.25
2023-05-06T08:59:39.454Z,100452.75
2023-05-06T09:02:43.429Z,100457.84
2023-05-06T09:05:47.673Z,100459.12
2023-05-06T09:08:50.372Z,100466.09
2023-05-06T09:11:55.329Z,100454.25
2023-05-06T09:14:57.796Z,100453.25
2023-05-06T09:18:00.795Z,100442.78
2023-05-06T09:21:04.793Z,100451.00
2023-05-06T09:24:08.780Z,100438.00
2023-05-06T09:27:12.322Z,100431.66
2023-05-06T09:30:16.270Z,100435.34
2023-05-06T09:33:18.728Z,100425.34
2023-05-06T09:36:23.687Z,100417.38
2023-05-06T09:39:26.959Z,100417.97
2023-05-06T09:42:29.640Z,100418.78
2023-05-06T09:45:32.901Z,100417.53
2023-05-06T09:48:36.022Z,100415.03
2023-05-06T09:51:41.635Z,100410.97
2023-05-06T09:54:44.551Z,100410.22
2023-05-06T09:57:47.663Z,100394.09
2023-05-06T10:00:51.416Z,100397.44
2023-05-06T10:03:54.323Z,100395.28
2023-05-06T10:06:58.154Z,100392.78
2023-05-06T10:10:00.920Z,100391.75
2023-05-06T10:13:04.481Z,100389.16
2023-05-06T10:16:07.891Z,100387.66
2023-05-06T10:19:10.412Z,100382.75
2023-05-06T10:22:22.161Z,100379.97
2023-05-06T10:25:30.457Z,100392.09
2023-05-06T10:28:35.786Z,100386.13
2023-05-06T10:31:40.525Z,100370.13
2023-05-06T10:34:47.788Z,100367.94
2023-05-06T10:37:51.508Z,100364.00
